Main page
METAR-TAF:

METAR-TAF

Airports :

George Best Belfast City Airport

Belfast City, Northern Ireland

latitude: 54-36N, longitude: 005-53W, elevation: 5 m

Current weather observation

The report was made 34 minutes ago, at 10:50 UTC
Wind 18 kt from the South/Southeast
Temperature 12°C
Humidity 82%
Pressure 986 hPa
Visibility 10 km or more

METAR: EGAC 091050Z AUTO 16018KT 9999 FEW012/// 12/09 Q0986

Time: 12:24 (11:24 UTC)

Forecast

The report was made 2 hours and 21 minutes ago, at 09:03 UTC
Forecast valid from 09 at 09 UTC to 09 at 18 UTC
Wind 14 kt from the South/Southeast
Visibility 10 km or more
Broken clouds at a height of 1200 ft
Becoming
from 09 at 09 UTC to 09 at 12 UTC
Wind 20 kt from the South with gusts up to 32 kt
Few clouds at a height of 1200 ft
Scattered clouds at a height of 2500 ft
Probability 30% :
Temporary
from 09 at 09 UTC to 09 at 15 UTC
Visibility: 4500 m
rain showers

TAF: EGAC 090903Z 0909/0918 16014KT 9999 BKN012 BECMG 0909/0912 17020G32KT FEW012 SCT025 PROB30 TEMPO 0909/0915 4500 SHRA

Weather observations and forecasts of more than 4000 airports (METAR and TAF reports).

The available stations are represented by yellow and red dots on the map.

Hover mouse over dot to see the name of the station.

Then click to see weather observations and forecasts.

To change the map : click on the green buttons with a black cross to zoom in, on the green button with a dash to zoom out, or on the green arrows for adjacent maps.


METAR-TAF: